Galva, IA (51020)

2:12 PM CDT on July 13, 2014 (GMT -0500)
Storm Lake Municipal (KSLB) Elev 1490 ft | 42.60 °N, 95.24 °W | Change Station

Current weather conditions updated 17 minutes ago

Clear
Clear
81 °F
Feels Like 82 °F
N
10
Wind Variable Wind from NW

Today is forecast to be Much Warmer than yesterday.

Today
High -- | Low -- °F
--% Chance of Precip.
Yesterday
High -- | Low -- °F
Precip. -- in
5:56 AM 8:58 PM
Full, 97% visible
Pressure 30.03 in
Visibility 10.0 miles
Clouds Clear
Heat Index 82 °F
Dew Point 64 °F
Humidity 58%
Rainfall 0.00 in
Snow Depth Not available.
UV 11 out of 12
Pollen 4.40 out of 12
Air Quality Not available.
Flu Activity Sporadic
METAR KSLB 131855Z AUTO 31009KT 10SM CLR 27/18 A3003 RMK AO2

More Conditions Fewer Conditions

Pressure 30.03 in
Visibility 10.0 miles
Clouds Clear
Heat Index 82 °F
Dew Point 64 °F
Humidity 58%
Rainfall 0.00 in
Snow Depth Not available.
UV 11 out of 12
Pollen 4.40 out of 12
Air Quality Not available.
Flu Activity Sporadic
METAR KSLB 131855Z AUTO 31009KT 10SM CLR 27/18 A3003 RMK AO2

More Conditions Fewer Conditions

10-Day Weather Forecast

Almanac

Astronomy

Jul. 13, 2014 Rise Set
Actual Time 5:56 AM CDT 8:58 PM CDT
Civil Twilight 5:22 AM CDT 9:32 PM CDT
Nautical Twilight 4:39 AM CDT 10:15 PM CDT
Astronomical Twilight 3:47 AM CDT 11:06 PM CDT
Moon 9:43 PM CDT 7:30 AM CDT
Length of Visible Light 16h 09m
Length of Day
15h 02m
Tomorrow will be 1m 24s shorter.
Full, 97% of the Moon is Illuminated
Today
Full
Jul 18
Last Quarter
Jul 26
New
Aug 3
First Quarter
Aug 10
Full

Today's Extremes

State Highs State Lows

Community

WunderPhotos

Upload Photos

1,733,340 photos uploaded!

Nearby

Snow Depth

Station Depth Elevation
No new snow has been reported.

Earthquake Activity

City Distance Mag. Time & Date
No recent earthquake activity has been reported nearby.
Minimum magnitude displayed is 2.5.

Coastal Water Temperatures

Place Temperature
No Stations Reporting

Nearby Weather Stations

Station Location Temp. Heat Index Dew Point Humidity Wind Precip. Elev Updated Type
Ricklefs Home, Storm Lake, IA 84.9 °F 84 °F 59 °F 41% WNW  at  1.6 mph 0.00 in / hr 1414 ft 2:12 PM CDT Rapid Fire
Oxendales Arthur, IA, Arthur, IA 82.9 °F 85 °F 67 °F 58% West  at  4.7 mph 0.00 in / hr 1496 ft 2:12 PM CDT Rapid Fire
MesoWest SHAGBARK HILLS , Correctionville, IA 80 °F 82 °F 66 °F 63% WNW  at  4 mph 0.00 in / hr 1399 ft 1:00 PM CDT MADIS
The Danbury Review, Danbury, IA 81.7 °F 84 °F 67 °F 61% NNW  at  0.0 mph 0.00 in / hr 1162 ft 2:10 PM CDT Normal

Show More Stations Show Fewer Stations